createdAt,value
2019-01-14T00:00:20.506Z,94310.91
2019-01-14T00:02:53.959Z,94303.26
2019-01-14T00:05:25.526Z,94298.59
2019-01-14T00:07:56.865Z,94279.98
2019-01-14T00:10:28.182Z,94284.36
2019-01-14T00:12:59.333Z,94277.82
2019-01-14T00:15:30.477Z,94282.03
2019-01-14T00:18:02.798Z,94293.34
2019-01-14T00:20:33.984Z,94285.09
2019-01-14T00:23:05.147Z,94291.78
2019-01-14T00:25:36.266Z,94287.08
2019-01-14T00:28:07.473Z,94288.36
2019-01-14T00:30:38.448Z,94283.84
2019-01-14T00:33:09.592Z,94275.59
2019-01-14T00:35:40.659Z,94277.96
2019-01-14T00:38:11.829Z,94282.31
2019-01-14T00:40:42.873Z,94288.27
2019-01-14T00:43:14.012Z,94292.85
2019-01-14T00:45:45.294Z,94295.56
2019-01-14T00:48:16.374Z,94298.31
2019-01-14T00:50:47.519Z,94322.77
2019-01-14T00:53:18.502Z,94361.52
2019-01-14T00:55:49.493Z,94353.62
2019-01-14T00:58:20.539Z,94368.63
2019-01-14T01:00:51.755Z,94377.59
2019-01-14T01:03:22.897Z,94373.02
2019-01-14T01:05:53.927Z,94380.61
2019-01-14T01:08:24.955Z,94386.42
2019-01-14T01:10:56.042Z,94388.33
2019-01-14T01:13:27.127Z,94377.59
2019-01-14T01:15:58.314Z,94377.78
2019-01-14T01:18:29.398Z,94376.17
2019-01-14T01:21:00.606Z,94374.47
2019-01-14T01:23:31.893Z,94364.84
2019-01-14T01:26:02.881Z,94371.45
2019-01-14T01:28:33.934Z,94381.42
2019-01-14T01:31:05.108Z,94398.98
2019-01-14T01:33:36.433Z,94389.20
2019-01-14T01:36:07.731Z,94390.91
2019-01-14T01:38:38.815Z,94394.52
2019-01-14T01:41:09.964Z,94402.22
2019-01-14T01:43:41.112Z,94402.78
2019-01-14T01:46:12.251Z,94416.01
2019-01-14T01:48:43.407Z,94417.78
2019-01-14T01:51:14.546Z,94422.94
2019-01-14T01:53:45.610Z,94415.20
2019-01-14T01:56:16.905Z,94413.75
2019-01-14T01:58:48.173Z,94421.89
2019-01-14T02:01:19.227Z,94422.83
2019-01-14T02:03:50.250Z,94435.80
2019-01-14T02:06:21.358Z,94434.39
2019-01-14T02:08:54.430Z,94453.16
2019-01-14T02:11:25.537Z,94461.55
2019-01-14T02:13:56.886Z,94469.52
2019-01-14T02:16:27.999Z,94471.64
2019-01-14T02:18:59.133Z,94478.25
2019-01-14T02:21:30.264Z,94483.59
2019-01-14T02:24:01.413Z,94488.05
2019-01-14T02:26:32.446Z,94497.66
2019-01-14T02:29:04.878Z,94490.43
2019-01-14T02:31:35.915Z,94489.41
2019-01-14T02:34:07.099Z,94517.97
2019-01-14T02:36:38.147Z,94500.42
2019-01-14T02:39:09.543Z,94500.84
2019-01-14T02:41:40.691Z,94507.81
2019-01-14T02:44:11.854Z,94507.14
2019-01-14T02:46:43.133Z,94500.78
2019-01-14T02:49:14.198Z,94507.33
2019-01-14T02:51:45.284Z,94500.01
2019-01-14T02:54:16.385Z,94485.41
2019-01-14T02:56:47.505Z,94513.28
2019-01-14T02:59:18.591Z,94511.19
2019-01-14T03:01:49.662Z,94512.41
2019-01-14T03:04:20.674Z,94526.74
2019-01-14T03:06:57.770Z,94527.42
2019-01-14T03:09:24.652Z,94537.31
2019-01-14T03:11:55.725Z,94536.29
2019-01-14T03:14:26.932Z,94531.41
2019-01-14T03:16:58.051Z,94522.34
2019-01-14T03:19:29.201Z,94536.30
2019-01-14T03:22:00.315Z,94542.17
2019-01-14T03:24:31.366Z,94537.16
2019-01-14T03:27:02.479Z,94539.31
2019-01-14T03:29:33.528Z,94537.90
2019-01-14T03:32:04.652Z,94543.20
2019-01-14T03:34:35.789Z,94548.53
2019-01-14T03:37:06.913Z,94550.14
2019-01-14T03:39:39.219Z,94549.08
2019-01-14T03:42:10.270Z,94548.05
2019-01-14T03:44:41.291Z,94548.47
2019-01-14T03:47:12.597Z,94553.13
2019-01-14T03:49:43.688Z,94547.66
2019-01-14T03:52:14.740Z,94556.66
2019-01-14T03:54:45.798Z,94564.63
2019-01-14T03:57:16.911Z,94569.16
2019-01-14T03:59:48.139Z,94575.45
2019-01-14T04:02:19.259Z,94579.70
2019-01-14T04:04:50.486Z,94582.30
2019-01-14T04:07:21.540Z,94584.10
2019-01-14T04:09:52.531Z,94545.28
2019-01-14T04:12:24.682Z,94588.24
2019-01-14T04:14:55.815Z,94592.76
2019-01-14T04:17:26.870Z,94603.32
2019-01-14T04:19:57.940Z,94596.22
2019-01-14T04:22:28.987Z,94613.00
2019-01-14T04:25:00.036Z,94609.24
2019-01-14T04:27:31.136Z,94610.95
2019-01-14T04:30:02.323Z,94626.78
2019-01-14T04:32:33.414Z,94626.83
2019-01-14T04:35:05.084Z,94622.24
2019-01-14T04:37:36.221Z,94627.78
2019-01-14T04:40:08.686Z,94636.30
2019-01-14T04:42:40.095Z,94641.44
2019-01-14T04:45:11.862Z,94639.80
2019-01-14T04:47:42.982Z,94643.05
2019-01-14T04:50:16.846Z,94651.13
2019-01-14T04:52:48.050Z,94639.08
2019-01-14T04:55:19.425Z,94664.77
2019-01-14T04:57:50.447Z,94656.70
2019-01-14T05:00:23.792Z,94655.02
2019-01-14T05:02:54.931Z,94660.56
2019-01-14T05:05:26.059Z,94665.77
2019-01-14T05:07:57.179Z,94657.34
2019-01-14T05:10:28.579Z,94656.05
2019-01-14T05:12:59.699Z,94674.05
2019-01-14T05:15:30.683Z,94682.00
2019-01-14T05:18:01.649Z,94683.28
2019-01-14T05:20:32.906Z,94682.84
2019-01-14T05:23:04.060Z,94682.08
2019-01-14T05:25:35.184Z,94690.70
2019-01-14T05:28:06.619Z,94697.58
2019-01-14T05:30:37.882Z,94704.24
2019-01-14T05:33:09.012Z,94692.68
2019-01-14T05:35:40.209Z,94710.91
2019-01-14T05:38:11.338Z,94725.77
2019-01-14T05:40:42.496Z,94719.50
2019-01-14T05:43:13.522Z,94719.50
2019-01-14T05:45:44.606Z,94719.10
2019-01-14T05:48:15.765Z,94734.95
2019-01-14T05:50:46.843Z,94718.73
2019-01-14T05:53:17.957Z,94725.92
2019-01-14T05:55:50.072Z,94730.50
2019-01-14T05:58:21.117Z,94728.13
2019-01-14T06:00:54.423Z,94727.73
2019-01-14T06:03:25.542Z,94724.42
2019-01-14T06:05:56.591Z,94760.27
2019-01-14T06:08:27.719Z,94735.55
2019-01-14T06:10:58.951Z,94746.98
2019-01-14T06:13:30.079Z,94740.47
2019-01-14T06:16:01.276Z,94755.44
2019-01-14T06:18:32.314Z,94747.58
2019-01-14T06:21:03.539Z,94756.45
2019-01-14T06:23:34.735Z,94752.90
2019-01-14T06:26:05.996Z,94754.96
2019-01-14T06:28:38.095Z,94754.48
2019-01-14T06:31:09.174Z,94762.45
2019-01-14T06:33:40.570Z,94754.14
2019-01-14T06:36:12.011Z,94754.57
2019-01-14T06:38:43.253Z,94766.58
2019-01-14T06:41:14.559Z,94774.31
2019-01-14T06:43:45.684Z,94774.73
2019-01-14T06:46:16.948Z,94771.22
2019-01-14T06:48:48.059Z,94773.59
2019-01-14T06:51:19.317Z,94784.77
2019-01-14T06:53:50.296Z,94788.14
2019-01-14T06:56:21.405Z,94789.28
2019-01-14T06:58:52.370Z,94803.17
2019-01-14T07:01:23.466Z,94806.22
2019-01-14T07:03:54.509Z,94809.09
2019-01-14T07:06:25.595Z,94814.89
2019-01-14T07:08:56.836Z,94810.34
2019-01-14T07:11:28.179Z,94821.43
2019-01-14T07:13:59.445Z,94826.59
2019-01-14T07:16:30.521Z,94829.11
2019-01-14T07:19:01.618Z,94828.78
2019-01-14T07:21:32.673Z,94825.37
2019-01-14T07:24:03.847Z,94826.66
2019-01-14T07:26:34.913Z,94837.86
2019-01-14T07:29:07.193Z,94841.91
2019-01-14T07:31:38.368Z,94833.80
2019-01-14T07:34:09.482Z,94847.31
2019-01-14T07:36:40.622Z,94852.24
2019-01-14T07:39:11.794Z,94857.19
2019-01-14T07:41:42.876Z,94869.16
2019-01-14T07:44:13.915Z,94872.06
2019-01-14T07:46:45.022Z,94868.42
2019-01-14T07:49:16.015Z,94889.36
2019-01-14T07:51:47.255Z,94869.97
2019-01-14T07:54:18.249Z,94873.02
2019-01-14T07:56:49.548Z,94885.77
2019-01-14T07:59:20.597Z,94893.76
2019-01-14T08:01:51.674Z,94901.50
2019-01-14T08:04:22.827Z,94905.94
2019-01-14T08:06:53.910Z,94903.47
2019-01-14T08:09:24.977Z,94912.17
2019-01-14T08:11:56.115Z,94909.53
2019-01-14T08:14:27.216Z,94911.37
2019-01-14T08:16:58.257Z,94928.77
2019-01-14T08:19:29.328Z,94916.84
2019-01-14T08:22:00.461Z,94920.38
2019-01-14T08:24:31.608Z,94928.55
2019-01-14T08:27:02.667Z,94935.09
2019-01-14T08:29:33.787Z,94934.73
2019-01-14T08:32:04.968Z,94936.61
2019-01-14T08:34:36.102Z,94940.52
2019-01-14T08:37:08.454Z,94934.88
2019-01-14T08:39:40.822Z,94946.40
2019-01-14T08:42:12.499Z,94955.18
2019-01-14T08:44:44.340Z,94959.33
2019-01-14T08:47:15.504Z,94961.11
2019-01-14T08:49:46.569Z,94964.95
2019-01-14T08:52:17.717Z,94967.40
2019-01-14T08:54:48.700Z,94968.59
2019-01-14T08:57:19.837Z,94970.34
2019-01-14T08:59:50.806Z,94964.73
2019-01-14T09:02:21.935Z,94980.67
2019-01-14T09:04:53.037Z,94986.48
2019-01-14T09:07:24.192Z,94990.94
2019-01-14T09:09:55.253Z,94995.80
2019-01-14T09:12:26.317Z,94996.11
2019-01-14T09:14:58.371Z,94998.09
2019-01-14T09:17:29.456Z,94996.09
2019-01-14T09:20:00.695Z,94993.59
2019-01-14T09:22:31.808Z,94991.83
2019-01-14T09:25:02.905Z,94992.32
2019-01-14T09:27:34.067Z,95000.73
2019-01-14T09:30:08.376Z,95007.27
2019-01-14T09:32:39.540Z,95012.56
2019-01-14T09:35:10.692Z,95010.53
2019-01-14T09:37:41.944Z,95011.61
2019-01-14T09:40:15.199Z,95005.64
2019-01-14T09:42:46.349Z,95012.66
2019-01-14T09:45:17.479Z,95009.42
2019-01-14T09:47:48.641Z,95010.72
2019-01-14T09:50:19.712Z,95011.48
2019-01-14T09:52:50.858Z,95010.32
2019-01-14T09:55:22.062Z,95022.45
2019-01-14T09:57:53.226Z,95009.83
2019-01-14T10:00:24.359Z,95019.45
2019-01-14T10:02:55.778Z,95023.40
2019-01-14T10:05:26.786Z,95021.17
2019-01-14T10:07:57.855Z,95018.82
2019-01-14T10:10:28.978Z,95017.85
2019-01-14T10:13:00.135Z,95023.89
2019-01-14T10:15:31.227Z,95006.98
2019-01-14T10:18:04.708Z,94997.19
2019-01-14T10:20:35.766Z,94991.99
2019-01-14T10:23:06.915Z,94992.44
2019-01-14T10:25:38.003Z,94996.76
2019-01-14T10:28:09.165Z,94994.59
2019-01-14T10:30:40.543Z,95018.50
2019-01-14T10:33:11.704Z,95003.18
2019-01-14T10:35:42.893Z,95006.36
2019-01-14T10:38:13.985Z,95001.55
2019-01-14T10:40:45.119Z,95003.82
2019-01-14T10:43:16.267Z,95000.61
2019-01-14T10:45:47.430Z,94998.92
2019-01-14T10:48:18.507Z,94995.50
2019-01-14T10:50:49.628Z,94986.36
2019-01-14T10:53:20.780Z,94985.91
2019-01-14T10:55:51.895Z,94994.48
2019-01-14T10:58:23.099Z,94993.52
2019-01-14T11:00:54.094Z,94992.28
2019-01-14T11:03:25.278Z,94984.80
2019-01-14T11:05:56.259Z,95004.63
2019-01-14T11:08:27.449Z,94992.55
2019-01-14T11:10:58.619Z,94995.06
2019-01-14T11:13:29.820Z,94983.34
2019-01-14T11:16:00.876Z,94950.06
2019-01-14T11:18:32.149Z,94985.39
2019-01-14T11:21:03.295Z,94982.92
2019-01-14T11:23:34.484Z,95001.33
2019-01-14T11:26:11.153Z,94993.08
2019-01-14T11:28:42.295Z,94987.79
2019-01-14T11:31:13.413Z,94981.18
2019-01-14T11:33:44.550Z,94989.93
2019-01-14T11:36:15.669Z,94975.14
2019-01-14T11:38:51.359Z,94975.98
2019-01-14T11:41:23.812Z,94966.42
2019-01-14T11:43:54.959Z,94967.56
2019-01-14T11:46:26.001Z,94969.52
2019-01-14T11:48:57.048Z,94962.36
2019-01-14T11:51:28.103Z,94970.75
2019-01-14T11:53:59.109Z,94972.64
2019-01-14T11:56:30.223Z,94967.22
2019-01-14T11:59:01.377Z,94956.83
2019-01-14T12:01:32.523Z,94967.11
2019-01-14T12:04:03.743Z,94950.73
2019-01-14T12:06:34.781Z,94954.00
2019-01-14T12:09:12.395Z,94961.67
2019-01-14T12:11:43.699Z,94950.51
2019-01-14T12:14:14.684Z,94957.64
2019-01-14T12:16:45.732Z,94953.39
2019-01-14T12:19:16.737Z,94952.71
2019-01-14T12:21:47.877Z,94966.83
2019-01-14T12:24:19.016Z,94963.47
2019-01-14T12:26:50.201Z,94953.37
2019-01-14T12:29:21.422Z,94958.81
2019-01-14T12:31:52.484Z,94964.75
2019-01-14T12:34:23.639Z,94954.73
2019-01-14T12:36:54.765Z,94960.61
2019-01-14T12:39:25.842Z,94971.16
2019-01-14T12:41:56.935Z,94955.41
2019-01-14T12:44:28.028Z,94965.58
2019-01-14T12:46:59.171Z,94965.41
2019-01-14T12:49:30.148Z,94960.06
2019-01-14T12:52:01.353Z,94951.66
2019-01-14T12:54:32.593Z,94958.19
2019-01-14T12:57:03.673Z,94952.73
2019-01-14T12:59:34.719Z,94956.69
2019-01-14T13:02:05.795Z,94956.91
2019-01-14T13:04:36.969Z,94970.23
2019-01-14T13:07:08.135Z,94966.06
2019-01-14T13:09:39.237Z,94958.09
2019-01-14T13:12:10.384Z,94961.67
2019-01-14T13:14:41.464Z,94956.86
2019-01-14T13:17:12.577Z,94957.72
2019-01-14T13:19:44.707Z,94960.71
2019-01-14T13:22:15.816Z,94963.81
2019-01-14T13:24:46.806Z,94960.71
2019-01-14T13:27:17.961Z,94977.86
2019-01-14T13:29:49.060Z,94968.47
2019-01-14T13:32:20.190Z,94974.73
2019-01-14T13:34:51.258Z,94961.57
2019-01-14T13:37:22.337Z,94972.66
2019-01-14T13:39:53.479Z,95007.33
2019-01-14T13:42:24.447Z,94991.81
2019-01-14T13:44:55.437Z,95008.37
2019-01-14T13:47:26.490Z,95024.45
2019-01-14T13:49:57.567Z,95041.78
2019-01-14T13:52:28.562Z,95042.19
2019-01-14T13:54:59.621Z,95043.55
2019-01-14T13:57:30.723Z,95060.49
2019-01-14T14:00:01.824Z,95073.18
2019-01-14T14:02:33.851Z,95073.89
2019-01-14T14:05:06.019Z,95076.23
2019-01-14T14:07:37.200Z,95071.64
2019-01-14T14:10:11.460Z,95083.03
2019-01-14T14:12:42.651Z,95081.42
2019-01-14T14:15:15.273Z,95077.34
2019-01-14T14:17:46.402Z,95079.19
2019-01-14T14:20:17.595Z,95078.34
2019-01-14T14:22:48.974Z,95093.25
2019-01-14T14:25:20.136Z,95098.52
2019-01-14T14:27:51.190Z,95103.41
2019-01-14T14:30:31.099Z,95108.02
2019-01-14T14:33:02.305Z,95125.09
2019-01-14T14:35:33.434Z,95128.80
2019-01-14T14:38:05.759Z,95137.34
2019-01-14T14:40:36.807Z,95141.77
2019-01-14T14:43:07.961Z,95141.75
2019-01-14T14:45:39.154Z,95145.73
2019-01-14T14:48:10.247Z,95139.70
2019-01-14T14:50:41.295Z,95139.79
2019-01-14T14:53:13.346Z,95138.28
2019-01-14T14:55:44.423Z,95141.34
2019-01-14T14:58:15.576Z,95152.30
2019-01-14T15:00:46.711Z,95144.61
2019-01-14T15:03:17.791Z,95158.98
2019-01-14T15:05:48.873Z,95169.80
2019-01-14T15:08:19.917Z,95175.77
2019-01-14T15:10:51.308Z,95172.02
2019-01-14T15:13:22.333Z,95172.64
2019-01-14T15:15:53.479Z,95174.02
2019-01-14T15:18:24.552Z,95171.27
2019-01-14T15:20:55.664Z,95171.22
2019-01-14T15:23:26.648Z,95181.84
2019-01-14T15:25:57.636Z,95186.27
2019-01-14T15:28:28.631Z,95192.61
2019-01-14T15:30:59.731Z,95203.44
2019-01-14T15:33:30.767Z,95223.42
2019-01-14T15:36:01.774Z,95228.78
2019-01-14T15:38:32.912Z,95235.27
2019-01-14T15:41:04.068Z,95245.11
2019-01-14T15:43:35.389Z,95235.09
2019-01-14T15:46:06.577Z,95244.25
2019-01-14T15:48:37.558Z,95251.73
2019-01-14T15:51:08.619Z,95256.77
2019-01-14T15:53:39.679Z,95263.02
2019-01-14T15:56:10.798Z,95264.50
2019-01-14T15:58:41.919Z,95270.58
2019-01-14T16:01:13.025Z,95284.13
2019-01-14T16:03:44.070Z,95284.22
2019-01-14T16:06:15.155Z,95292.90
2019-01-14T16:08:46.289Z,95297.39
2019-01-14T16:11:17.395Z,95298.59
2019-01-14T16:13:48.498Z,95314.87
2019-01-14T16:16:19.670Z,95327.17
2019-01-14T16:18:50.792Z,95327.80
2019-01-14T16:21:21.833Z,95341.58
2019-01-14T16:23:52.976Z,95337.92
2019-01-14T16:26:24.043Z,95352.08
2019-01-14T16:28:55.087Z,95352.55
2019-01-14T16:31:26.081Z,95362.17
2019-01-14T16:33:57.068Z,95368.89
2019-01-14T16:36:28.215Z,95376.45
2019-01-14T16:38:59.344Z,95371.45
2019-01-14T16:41:30.483Z,95386.38
2019-01-14T16:44:01.616Z,95381.81
2019-01-14T16:46:32.782Z,95388.09
2019-01-14T16:49:03.828Z,95396.44
2019-01-14T16:51:34.932Z,95405.23
2019-01-14T16:54:06.057Z,95412.55
2019-01-14T16:56:37.095Z,95425.64
2019-01-14T16:59:08.232Z,95422.84
2019-01-14T17:01:39.230Z,95436.05
2019-01-14T17:04:10.274Z,95445.66
2019-01-14T17:06:41.426Z,95450.94
2019-01-14T17:09:12.583Z,95458.74
2019-01-14T17:11:43.650Z,95477.23
2019-01-14T17:14:15.942Z,95466.53
2019-01-14T17:16:47.112Z,95478.05
2019-01-14T17:19:18.246Z,95469.94
2019-01-14T17:21:49.244Z,95497.41
2019-01-14T17:24:20.231Z,95498.22
2019-01-14T17:26:51.394Z,95496.30
2019-01-14T17:29:22.486Z,95498.48
2019-01-14T17:31:53.488Z,95505.73
2019-01-14T17:34:24.545Z,95510.13
2019-01-14T17:36:56.054Z,95523.45
2019-01-14T17:39:27.124Z,95520.64
2019-01-14T17:41:58.856Z,95525.50
2019-01-14T17:44:29.993Z,95525.59
2019-01-14T17:47:00.997Z,95537.38
2019-01-14T17:49:32.054Z,95541.78
2019-01-14T17:52:03.220Z,95548.35
2019-01-14T17:54:34.353Z,95549.83
2019-01-14T17:57:05.537Z,95553.84
2019-01-14T17:59:36.679Z,95555.38
2019-01-14T18:02:07.851Z,95556.11
2019-01-14T18:04:39.046Z,95555.02
2019-01-14T18:07:10.186Z,95565.72
2019-01-14T18:09:41.175Z,95567.73
2019-01-14T18:12:12.289Z,95574.77
2019-01-14T18:14:43.401Z,95573.66
2019-01-14T18:17:14.494Z,95577.51
2019-01-14T18:19:46.048Z,95583.44
2019-01-14T18:22:17.123Z,95587.66
2019-01-14T18:24:48.180Z,95597.06
2019-01-14T18:27:19.266Z,95594.97
2019-01-14T18:29:50.351Z,95595.41
2019-01-14T18:32:21.423Z,95612.41
2019-01-14T18:34:52.564Z,95618.45
2019-01-14T18:37:23.655Z,95618.80
2019-01-14T18:39:54.783Z,95614.15
2019-01-14T18:42:25.940Z,95622.03
2019-01-14T18:44:56.983Z,95628.67
2019-01-14T18:47:28.239Z,95632.07
2019-01-14T18:49:59.266Z,95630.06
2019-01-14T18:52:30.350Z,95629.31
2019-01-14T18:55:01.403Z,95626.03
2019-01-14T18:57:32.577Z,95621.36
2019-01-14T19:00:04.748Z,95628.88
2019-01-14T19:02:35.742Z,95636.63
2019-01-14T19:05:07.120Z,95633.25
2019-01-14T19:07:39.364Z,95635.72
2019-01-14T19:10:10.960Z,95638.20
2019-01-14T19:12:42.193Z,95636.34
2019-01-14T19:15:15.199Z,95641.84
2019-01-14T19:17:46.534Z,95640.66
2019-01-14T19:20:23.233Z,95647.23
2019-01-14T19:22:55.457Z,95646.69
2019-01-14T19:25:26.696Z,95645.69
2019-01-14T19:27:57.678Z,95658.73
2019-01-14T19:30:28.828Z,95656.48
2019-01-14T19:33:01.062Z,95652.17
2019-01-14T19:35:33.099Z,95673.02
2019-01-14T19:38:04.326Z,95679.23
2019-01-14T19:40:35.459Z,95673.47
2019-01-14T19:43:06.767Z,95681.42
2019-01-14T19:45:37.891Z,95689.59
2019-01-14T19:48:09.104Z,95692.67
2019-01-14T19:50:40.200Z,95693.21
2019-01-14T19:53:11.296Z,95707.13
2019-01-14T19:55:42.421Z,95712.16
2019-01-14T19:58:13.553Z,95714.64
2019-01-14T20:00:44.649Z,95704.01
2019-01-14T20:03:15.747Z,95701.63
2019-01-14T20:05:46.887Z,95712.06
2019-01-14T20:08:19.347Z,95703.56
2019-01-14T20:10:50.415Z,95712.05
2019-01-14T20:13:21.550Z,95717.30
2019-01-14T20:15:52.615Z,95721.30
2019-01-14T20:18:23.789Z,95728.34
2019-01-14T20:20:54.876Z,95713.01
2019-01-14T20:23:26.106Z,95729.36
2019-01-14T20:25:57.186Z,95717.19
2019-01-14T20:28:28.278Z,95726.45
2019-01-14T20:30:59.280Z,95730.73
2019-01-14T20:33:30.449Z,95723.05
2019-01-14T20:36:01.577Z,95737.49
2019-01-14T20:38:32.656Z,95734.56
2019-01-14T20:41:04.076Z,95728.62
2019-01-14T20:43:35.209Z,95735.39
2019-01-14T20:46:06.328Z,95726.72
2019-01-14T20:48:37.332Z,95742.80
2019-01-14T20:51:08.460Z,95720.49
2019-01-14T20:53:39.550Z,95724.17
2019-01-14T20:56:10.843Z,95729.28
2019-01-14T20:58:41.979Z,95733.48
2019-01-14T21:01:13.027Z,95724.32
2019-01-14T21:03:44.112Z,95742.55
2019-01-14T21:06:15.245Z,95727.55
2019-01-14T21:08:46.352Z,95733.58
2019-01-14T21:11:23.810Z,95736.51
2019-01-14T21:13:50.314Z,95750.68
2019-01-14T21:16:21.370Z,95745.46
2019-01-14T21:18:52.563Z,95748.75
2019-01-14T21:21:23.688Z,95745.83
2019-01-14T21:23:54.698Z,95749.67
2019-01-14T21:26:25.857Z,95784.45
2019-01-14T21:28:56.840Z,95797.24
2019-01-14T21:31:27.909Z,95767.25
2019-01-14T21:33:59.001Z,95761.78
2019-01-14T21:36:30.121Z,95776.83
2019-01-14T21:39:01.211Z,95783.97
2019-01-14T21:41:33.392Z,95782.06
2019-01-14T21:44:04.714Z,95792.57
2019-01-14T21:46:35.871Z,95790.98
2019-01-14T21:49:06.935Z,95791.48
2019-01-14T21:51:38.065Z,95795.95
2019-01-14T21:54:09.218Z,95796.38
2019-01-14T21:56:40.354Z,95804.56
2019-01-14T21:59:11.466Z,95806.92
2019-01-14T22:01:42.530Z,95805.26
2019-01-14T22:04:14.677Z,95814.66
2019-01-14T22:06:45.785Z,95827.41
2019-01-14T22:09:16.775Z,95829.61
2019-01-14T22:11:47.857Z,95828.33
2019-01-14T22:14:19.049Z,95834.13
2019-01-14T22:16:50.057Z,95837.16
2019-01-14T22:19:21.123Z,95833.23
2019-01-14T22:21:52.124Z,95841.38
2019-01-14T22:24:23.136Z,95845.64
2019-01-14T22:26:54.198Z,95837.69
2019-01-14T22:29:25.356Z,95847.05
2019-01-14T22:31:56.457Z,95847.77
2019-01-14T22:34:27.460Z,95844.28
2019-01-14T22:36:58.451Z,95852.12
2019-01-14T22:39:29.461Z,95869.14
2019-01-14T22:42:00.559Z,95866.00
2019-01-14T22:44:31.640Z,95866.38
2019-01-14T22:47:02.808Z,95875.30
2019-01-14T22:49:33.816Z,95874.12
2019-01-14T22:52:05.070Z,95869.30
2019-01-14T22:54:36.113Z,95874.88
2019-01-14T22:57:07.109Z,95880.66
2019-01-14T22:59:38.144Z,95887.00
2019-01-14T23:02:09.885Z,95900.41
2019-01-14T23:04:40.963Z,95885.30
2019-01-14T23:07:11.951Z,95895.34
2019-01-14T23:09:43.116Z,95897.86
2019-01-14T23:12:14.184Z,95900.27
2019-01-14T23:14:45.254Z,95892.20
2019-01-14T23:17:16.323Z,95910.98
2019-01-14T23:19:47.559Z,95910.53
2019-01-14T23:22:18.619Z,95909.59
2019-01-14T23:24:50.549Z,95922.92
2019-01-14T23:27:21.724Z,95923.36
2019-01-14T23:29:52.752Z,95932.83
2019-01-14T23:32:23.830Z,95926.72
2019-01-14T23:34:54.993Z,95923.30
2019-01-14T23:37:26.048Z,95931.98
2019-01-14T23:39:57.038Z,95934.85
2019-01-14T23:42:28.234Z,95930.15
2019-01-14T23:44:59.332Z,95935.41
2019-01-14T23:47:30.387Z,95934.95
2019-01-14T23:50:01.448Z,95935.34
2019-01-14T23:52:32.497Z,95940.53
2019-01-14T23:55:03.634Z,95936.13
2019-01-14T23:57:34.687Z,95940.17
